createdAt,value
2018-06-27T02:01:07.784Z,0
2018-06-27T02:02:09.434Z,0
2018-06-27T02:03:11.079Z,0
2018-06-27T02:04:15.243Z,0
2018-06-27T02:05:16.694Z,0
2018-06-27T02:06:18.359Z,0
2018-06-27T02:07:19.993Z,0
2018-06-27T02:08:21.648Z,0
2018-06-27T02:09:23.290Z,0
2018-06-27T02:10:24.934Z,0
2018-06-27T02:11:26.583Z,0
2018-06-27T02:12:28.235Z,0
2018-06-27T02:13:29.893Z,0
2018-06-27T02:14:31.534Z,0
2018-06-27T02:15:33.179Z,0
2018-06-27T02:16:34.824Z,0
2018-06-27T02:17:36.468Z,0
2018-06-27T02:18:38.120Z,0
2018-06-27T02:19:39.769Z,0
2018-06-27T02:20:41.425Z,0
2018-06-27T02:21:43.074Z,0
2018-06-27T02:22:44.722Z,0
2018-06-27T02:23:46.366Z,0
2018-06-27T02:24:48.019Z,0
2018-06-27T02:25:49.667Z,0
2018-06-27T02:26:51.305Z,0
2018-06-27T02:27:52.950Z,0
2018-06-27T02:28:54.591Z,0
2018-06-27T02:29:56.245Z,0
2018-06-27T02:30:57.902Z,0
2018-06-27T02:31:59.571Z,0
2018-06-27T02:33:01.219Z,0
2018-06-27T02:34:02.890Z,0
2018-06-27T02:35:04.553Z,0
2018-06-27T02:36:06.190Z,0
2018-06-27T02:37:07.844Z,0
2018-06-27T02:38:09.490Z,0
2018-06-27T02:39:11.149Z,0
2018-06-27T02:40:12.804Z,0
2018-06-27T02:41:14.450Z,0
2018-06-27T02:42:16.103Z,0
2018-06-27T02:43:17.757Z,0
2018-06-27T02:44:19.419Z,0
2018-06-27T02:45:21.059Z,0
2018-06-27T02:46:22.705Z,0
2018-06-27T02:47:24.372Z,0
2018-06-27T02:48:26.028Z,0
2018-06-27T02:49:27.671Z,0
2018-06-27T02:50:29.318Z,0
2018-06-27T02:51:30.974Z,0
2018-06-27T02:52:32.615Z,0
2018-06-27T02:53:34.267Z,0
2018-06-27T02:54:35.908Z,0
2018-06-27T02:55:37.553Z,0
2018-06-27T02:56:39.209Z,0
2018-06-27T02:57:40.854Z,0
2018-06-27T02:58:42.556Z,0
2018-06-27T02:59:44.219Z,0
2018-06-27T03:00:45.855Z,5
2018-06-27T03:01:47.511Z,5
2018-06-27T03:02:49.157Z,5
2018-06-27T03:03:50.815Z,5
2018-06-27T03:04:52.470Z,5
2018-06-27T03:05:54.114Z,5
2018-06-27T03:06:55.770Z,5
2018-06-27T03:07:57.419Z,10
2018-06-27T03:08:59.068Z,10
2018-06-27T03:10:00.713Z,10
2018-06-27T03:11:02.395Z,10
2018-06-27T03:12:04.051Z,10
2018-06-27T03:13:05.724Z,10
2018-06-27T03:14:07.369Z,15
2018-06-27T03:15:09.018Z,15
2018-06-27T03:16:10.677Z,15
2018-06-27T03:17:12.335Z,15
2018-06-27T03:18:13.979Z,20
2018-06-27T03:19:15.632Z,20
2018-06-27T03:20:17.333Z,20
2018-06-27T03:21:18.941Z,20
2018-06-27T03:22:20.600Z,25
2018-06-27T03:23:22.250Z,25
2018-06-27T03:24:23.899Z,25
2018-06-27T03:25:25.544Z,30
2018-06-27T03:26:27.198Z,30
2018-06-27T03:27:28.858Z,30
2018-06-27T03:28:30.511Z,35
2018-06-27T03:29:32.157Z,35
2018-06-27T03:30:33.814Z,35
2018-06-27T03:31:35.463Z,40
2018-06-27T03:32:37.120Z,40
2018-06-27T03:33:38.789Z,40
2018-06-27T03:34:40.421Z,45
2018-06-27T03:35:42.067Z,45
2018-06-27T03:36:43.722Z,45
2018-06-27T03:37:45.378Z,50
2018-06-27T03:38:47.032Z,50
2018-06-27T03:39:48.680Z,50
2018-06-27T03:40:50.337Z,55
2018-06-27T03:41:51.990Z,55
2018-06-27T03:42:53.646Z,60
2018-06-27T03:43:55.298Z,60
2018-06-27T03:44:56.959Z,60
2018-06-27T03:45:58.609Z,65
2018-06-27T03:47:00.260Z,65
2018-06-27T03:48:01.937Z,70
2018-06-27T03:49:03.577Z,70
2018-06-27T03:50:05.234Z,70
2018-06-27T03:51:06.879Z,75
2018-06-27T03:52:08.526Z,75
2018-06-27T03:53:10.185Z,80
2018-06-27T03:54:11.847Z,80
2018-06-27T03:55:13.512Z,80
2018-06-27T03:56:15.162Z,85
2018-06-27T03:57:16.814Z,85
2018-06-27T03:58:18.465Z,90
2018-06-27T03:59:20.124Z,90
2018-06-27T04:00:21.782Z,95
2018-06-27T04:01:23.441Z,95
2018-06-27T04:02:25.103Z,100
2018-06-27T04:03:26.777Z,100
2018-06-27T04:04:28.413Z,105
2018-06-27T04:05:30.076Z,110
2018-06-27T04:06:31.732Z,115
2018-06-27T04:07:33.384Z,110
2018-06-27T04:08:35.053Z,120
2018-06-27T04:09:36.704Z,120
2018-06-27T04:10:38.371Z,125
2018-06-27T04:11:40.026Z,125
2018-06-27T04:12:41.738Z,130
2018-06-27T04:13:43.322Z,130
2018-06-27T04:14:44.975Z,130
2018-06-27T04:15:46.626Z,135
2018-06-27T04:16:48.282Z,135
2018-06-27T04:17:49.940Z,135
2018-06-27T04:18:51.599Z,135
2018-06-27T04:19:53.249Z,135
2018-06-27T04:20:54.901Z,135
2018-06-27T04:21:56.568Z,140
2018-06-27T04:22:58.210Z,140
2018-06-27T04:23:59.870Z,145
2018-06-27T04:25:01.546Z,150
2018-06-27T04:26:03.227Z,160
2018-06-27T04:27:04.873Z,170
2018-06-27T04:28:06.534Z,175
2018-06-27T04:29:08.179Z,175
2018-06-27T04:30:09.835Z,180
2018-06-27T04:31:11.491Z,180
2018-06-27T04:32:13.153Z,180
2018-06-27T04:33:14.801Z,180
2018-06-27T04:34:16.462Z,185
2018-06-27T04:35:18.115Z,185
2018-06-27T04:36:19.770Z,190
2018-06-27T04:37:21.423Z,195
2018-06-27T04:38:23.083Z,195
2018-06-27T04:39:24.745Z,195
2018-06-27T04:40:26.392Z,205
2018-06-27T04:41:28.055Z,205
2018-06-27T04:42:29.714Z,210
2018-06-27T04:43:31.376Z,215
2018-06-27T04:44:33.040Z,215
2018-06-27T04:45:34.695Z,220
2018-06-27T04:46:36.352Z,225
2018-06-27T04:47:38.009Z,225
2018-06-27T04:48:39.700Z,230
2018-06-27T04:49:41.359Z,235
2018-06-27T04:50:43.012Z,235
2018-06-27T04:51:44.724Z,240
2018-06-27T04:52:46.383Z,245
2018-06-27T04:53:48.042Z,255
2018-06-27T04:54:49.761Z,255
2018-06-27T04:55:51.404Z,255
2018-06-27T04:56:53.067Z,260
2018-06-27T04:57:54.738Z,260
2018-06-27T04:58:56.393Z,260
2018-06-27T04:59:58.064Z,260
2018-06-27T05:00:59.722Z,265
2018-06-27T05:02:01.394Z,265
2018-06-27T05:03:03.098Z,265
2018-06-27T05:04:04.743Z,270
2018-06-27T05:05:06.402Z,275
2018-06-27T05:06:08.062Z,275
2018-06-27T05:07:09.737Z,280
2018-06-27T05:08:11.399Z,280
2018-06-27T05:09:13.058Z,285
2018-06-27T05:10:14.724Z,285
2018-06-27T05:11:16.384Z,285
2018-06-27T05:12:18.066Z,290
2018-06-27T05:13:19.710Z,290
2018-06-27T05:14:21.381Z,290
2018-06-27T05:15:23.044Z,290
2018-06-27T05:16:24.701Z,295
2018-06-27T05:17:26.359Z,295
2018-06-27T05:18:28.010Z,300
2018-06-27T05:19:29.674Z,310
2018-06-27T05:20:31.351Z,305
2018-06-27T05:21:33.022Z,305
2018-06-27T05:22:34.689Z,310
2018-06-27T05:23:36.351Z,310
2018-06-27T05:24:38.011Z,315
2018-06-27T05:25:39.680Z,315
2018-06-27T05:26:41.336Z,320
2018-06-27T05:27:43.021Z,320
2018-06-27T05:28:44.625Z,325
2018-06-27T05:29:46.287Z,330
2018-06-27T05:30:47.951Z,330
2018-06-27T05:31:49.614Z,335
2018-06-27T05:32:51.282Z,340
2018-06-27T05:33:52.986Z,340
2018-06-27T05:34:54.628Z,340
2018-06-27T05:35:56.293Z,345
2018-06-27T05:36:57.956Z,345
2018-06-27T05:37:59.613Z,350
2018-06-27T05:39:01.280Z,350
2018-06-27T05:40:02.965Z,350
2018-06-27T05:41:04.649Z,355
2018-06-27T05:42:06.315Z,360
2018-06-27T05:43:07.979Z,360
2018-06-27T05:44:09.673Z,365
2018-06-27T05:45:11.316Z,365
2018-06-27T05:46:12.967Z,370
2018-06-27T05:47:14.628Z,370
2018-06-27T05:48:16.303Z,375
2018-06-27T05:49:17.970Z,375
2018-06-27T05:50:19.634Z,380
2018-06-27T05:51:21.297Z,385
2018-06-27T05:52:22.969Z,385
2018-06-27T05:53:24.642Z,390
2018-06-27T05:54:26.309Z,390
2018-06-27T05:55:27.972Z,395
2018-06-27T06:01:56.669Z,415
2018-06-27T06:02:58.326Z,420
2018-06-27T06:04:50.232Z,425
2018-06-27T06:05:51.912Z,435
2018-06-27T06:06:53.570Z,430
2018-06-27T06:07:55.240Z,435
2018-06-27T06:08:56.907Z,440
2018-06-27T06:09:58.578Z,440
2018-06-27T06:11:00.245Z,440
2018-06-27T06:12:01.912Z,445
2018-06-27T06:13:03.579Z,445
2018-06-27T06:14:05.253Z,450
2018-06-27T06:15:06.912Z,460
2018-06-27T06:16:08.574Z,455
2018-06-27T06:17:10.254Z,460
2018-06-27T06:18:11.912Z,470
2018-06-27T06:19:13.573Z,475
2018-06-27T06:20:15.236Z,475
2018-06-27T06:21:16.902Z,475
2018-06-27T06:22:19.485Z,480
2018-06-27T06:23:21.147Z,480
2018-06-27T06:24:22.812Z,485
2018-06-27T06:25:24.500Z,490
2018-06-27T06:26:26.148Z,485
2018-06-27T06:27:27.812Z,490
2018-06-27T06:28:29.467Z,500
2018-06-27T06:29:31.153Z,505
2018-06-27T06:30:32.821Z,510
2018-06-27T06:31:34.487Z,510
2018-06-27T06:32:36.166Z,510
2018-06-27T06:33:37.831Z,515
2018-06-27T06:34:39.519Z,520
2018-06-27T06:35:41.202Z,525
2018-06-27T06:36:42.875Z,530
2018-06-27T06:37:44.537Z,535
2018-06-27T06:38:46.213Z,555
2018-06-27T06:39:47.891Z,550
2018-06-27T06:40:49.660Z,550
2018-06-27T06:41:51.235Z,560
2018-06-27T06:42:52.907Z,555
2018-06-27T06:43:54.577Z,560
2018-06-27T06:44:56.257Z,565
2018-06-27T06:45:57.947Z,570
2018-06-27T06:46:59.597Z,580
2018-06-27T06:48:01.292Z,585
2018-06-27T06:49:02.976Z,590
2018-06-27T06:50:04.642Z,605
2018-06-27T06:51:06.345Z,615
2018-06-27T06:52:08.041Z,630
2018-06-27T06:53:09.696Z,635
2018-06-27T06:54:11.430Z,645
2018-06-27T06:55:13.051Z,655
2018-06-27T06:56:14.711Z,665
2018-06-27T06:57:16.391Z,685
2018-06-27T06:58:18.048Z,710
2018-06-27T06:59:19.726Z,730
2018-06-27T07:00:21.384Z,740
2018-06-27T07:01:23.058Z,750
2018-06-27T07:02:24.762Z,780
2018-06-27T07:03:26.436Z,810
2018-06-27T07:04:28.101Z,845
2018-06-27T07:05:29.771Z,905
2018-06-27T07:06:31.455Z,925
2018-06-27T07:07:33.123Z,995
2018-06-27T07:08:34.805Z,1070
2018-06-27T07:09:36.480Z,1160
2018-06-27T07:10:38.154Z,1255
2018-06-27T07:11:39.830Z,1340
2018-06-27T07:12:41.578Z,1455
2018-06-27T07:13:43.245Z,1655
2018-06-27T07:14:44.936Z,1975
2018-06-27T07:15:46.608Z,2295
2018-06-27T07:16:48.284Z,2450
2018-06-27T07:17:50.003Z,2515
2018-06-27T07:18:51.610Z,2580
2018-06-27T07:19:53.281Z,2650
2018-06-27T07:20:54.953Z,2830
2018-06-27T07:21:56.637Z,3005
2018-06-27T07:22:58.318Z,3065
2018-06-27T07:23:59.995Z,3230
2018-06-27T07:25:01.671Z,3225
2018-06-27T07:26:03.389Z,3180
2018-06-27T07:27:05.079Z,3155
2018-06-27T07:28:06.765Z,3160
2018-06-27T07:29:08.441Z,3200
2018-06-27T07:30:10.128Z,3115
2018-06-27T07:31:11.814Z,3045
2018-06-27T07:32:13.507Z,3050
2018-06-27T07:33:15.185Z,2685
2018-06-27T07:34:16.867Z,2725
2018-06-27T07:35:18.546Z,1480
2018-06-27T07:36:20.227Z,2465
2018-06-27T07:37:21.905Z,2225
2018-06-27T07:38:23.580Z,635
2018-06-27T07:39:25.254Z,540
2018-06-27T07:40:26.932Z,2070
2018-06-27T07:41:28.620Z,2030
2018-06-27T07:42:30.283Z,1980
2018-06-27T07:43:31.962Z,1905
2018-06-27T07:44:33.697Z,1790
2018-06-27T07:45:35.312Z,1730
2018-06-27T07:46:36.981Z,1755
2018-06-27T07:47:38.667Z,1725
2018-06-27T07:48:40.340Z,1765
2018-06-27T07:49:42.020Z,1760
2018-06-27T07:50:43.688Z,1715
2018-06-27T07:51:45.361Z,1725
2018-06-27T07:52:47.030Z,1720
2018-06-27T07:53:48.712Z,1715
2018-06-27T07:54:50.403Z,1705
2018-06-27T07:55:52.067Z,1655
2018-06-27T07:56:53.743Z,1650
2018-06-27T07:57:55.417Z,1690
2018-06-27T07:58:57.100Z,1755
2018-06-27T07:59:58.776Z,1950
2018-06-27T08:01:00.453Z,1995
2018-06-27T08:02:02.134Z,1885
2018-06-27T08:03:03.809Z,1815
2018-06-27T08:04:05.476Z,1745
2018-06-27T08:05:07.157Z,1770
2018-06-27T08:06:08.833Z,1835
2018-06-27T08:07:10.513Z,1790
2018-06-27T08:08:12.181Z,1805
2018-06-27T08:09:13.855Z,1810
2018-06-27T08:10:15.533Z,1825
2018-06-27T08:11:17.207Z,1905
2018-06-27T08:12:19.026Z,905
2018-06-27T08:13:20.675Z,1875
2018-06-27T08:14:22.342Z,1225
2018-06-27T08:15:24.024Z,790
2018-06-27T08:16:25.712Z,2040
2018-06-27T08:17:27.397Z,2000
2018-06-27T08:18:29.076Z,2025
2018-06-27T08:19:30.755Z,2020
2018-06-27T08:20:32.439Z,1235
2018-06-27T08:21:34.627Z,650
2018-06-27T08:22:36.302Z,1975
2018-06-27T08:23:37.982Z,2020
2018-06-27T08:24:39.655Z,2105
2018-06-27T08:25:41.346Z,600
2018-06-27T08:26:43.021Z,540
2018-06-27T08:27:44.693Z,515
2018-06-27T08:28:46.359Z,575
2018-06-27T08:29:48.036Z,635
2018-06-27T08:30:49.754Z,770
2018-06-27T08:31:51.421Z,765
2018-06-27T08:32:53.100Z,885
2018-06-27T08:33:54.778Z,650
2018-06-27T08:34:56.549Z,700
2018-06-27T08:35:58.230Z,630
2018-06-27T08:36:59.908Z,630
2018-06-27T08:38:01.573Z,675
2018-06-27T08:39:03.235Z,730
2018-06-27T08:40:04.914Z,785
2018-06-27T08:41:06.578Z,915
2018-06-27T08:42:08.253Z,865
2018-06-27T08:43:09.929Z,875
2018-06-27T08:44:11.596Z,840
2018-06-27T08:45:13.273Z,850
2018-06-27T08:46:14.952Z,2330
2018-06-27T08:47:16.615Z,730
2018-06-27T08:48:18.324Z,750
2018-06-27T08:49:20.040Z,2240
2018-06-27T08:50:21.726Z,2270
2018-06-27T08:52:33.060Z,705
2018-06-27T08:54:44.347Z,810
2018-06-27T08:55:46.411Z,1185
2018-06-27T08:56:48.213Z,1485
2018-06-27T08:57:49.883Z,1315
2018-06-27T08:58:51.589Z,2590
2018-06-27T08:59:53.260Z,1470
2018-06-27T09:00:54.947Z,2325
2018-06-27T09:01:56.657Z,2620
2018-06-27T09:02:58.330Z,2650
2018-06-27T09:04:00.007Z,2635
2018-06-27T09:05:01.681Z,2620
2018-06-27T09:06:03.392Z,2510
2018-06-27T09:07:05.062Z,2520
2018-06-27T09:08:06.822Z,2545
2018-06-27T09:09:08.500Z,815
2018-06-27T09:10:10.175Z,1360
2018-06-27T09:11:12.720Z,915
2018-06-27T09:12:14.391Z,990
2018-06-27T09:13:16.981Z,855
2018-06-27T09:14:18.660Z,2605
2018-06-27T09:15:20.344Z,2675
2018-06-27T09:16:22.114Z,755
2018-06-27T09:17:59.436Z,640
2018-06-27T09:19:01.810Z,585
2018-06-27T09:20:03.620Z,645
2018-06-27T09:21:05.799Z,900
2018-06-27T09:22:07.620Z,690
2018-06-27T09:23:09.726Z,625
2018-06-27T09:24:11.757Z,605
2018-06-27T09:25:14.156Z,2165
2018-06-27T09:26:19.319Z,2125
2018-06-27T09:27:23.033Z,2020
2018-06-27T09:28:25.599Z,2005
2018-06-27T09:29:28.697Z,1975
2018-06-27T09:30:30.821Z,1945
2018-06-27T09:31:33.123Z,2045
2018-06-27T09:32:35.478Z,2055
2018-06-27T09:33:37.778Z,2035
2018-06-27T09:34:40.264Z,1960
2018-06-27T09:35:42.005Z,1895
2018-06-27T09:36:43.793Z,1910
2018-06-27T09:37:45.526Z,1955
2018-06-27T09:38:49.301Z,1990
2018-06-27T09:39:52.741Z,2015
2018-06-27T09:40:56.311Z,2015
2018-06-27T09:42:01.043Z,2030
2018-06-27T09:43:05.786Z,965
2018-06-27T09:44:09.583Z,2195
2018-06-27T09:45:11.573Z,1200
2018-06-27T09:46:15.121Z,1095
2018-06-27T09:47:19.513Z,2275
2018-06-27T09:48:23.423Z,3065
2018-06-27T09:49:27.121Z,4450
2018-06-27T09:50:30.821Z,4515
2018-06-27T09:51:32.414Z,3915
2018-06-27T09:52:34.118Z,4010
2018-06-27T09:53:35.843Z,3200
2018-06-27T09:54:37.542Z,3950
2018-06-27T09:55:39.260Z,3725
2018-06-27T10:01:28.359Z,3640
2018-06-27T10:02:30.031Z,3905
2018-06-27T10:03:31.714Z,3885
2018-06-27T10:04:33.388Z,3635
2018-06-27T10:05:35.069Z,3390
2018-06-27T10:06:36.871Z,3495
2018-06-27T10:07:38.579Z,3720
2018-06-27T10:08:40.260Z,3705
2018-06-27T10:09:41.937Z,3825
2018-06-27T10:10:43.625Z,3775
2018-06-27T10:11:45.344Z,3690
2018-06-27T10:12:47.017Z,3835
2018-06-27T10:13:48.779Z,3880
2018-06-27T10:14:50.453Z,3940
2018-06-27T10:15:52.135Z,3890
2018-06-27T10:16:53.879Z,3995
2018-06-27T10:17:55.511Z,4140
2018-06-27T10:18:57.262Z,4110
2018-06-27T10:19:58.939Z,4055
2018-06-27T10:21:00.642Z,3980
2018-06-27T10:22:02.327Z,3815
2018-06-27T10:23:04.021Z,4030
2018-06-27T10:24:05.695Z,4120
2018-06-27T10:25:07.428Z,4215
2018-06-27T10:26:09.098Z,4240
2018-06-27T10:27:10.810Z,4140
2018-06-27T10:28:12.486Z,4125
2018-06-27T10:29:14.190Z,4205
2018-06-27T10:30:15.868Z,4195
2018-06-27T10:31:17.543Z,4100
2018-06-27T10:32:19.215Z,4035
2018-06-27T10:33:20.891Z,4265
2018-06-27T10:34:22.566Z,4295
2018-06-27T10:35:24.237Z,4215
2018-06-27T10:36:25.919Z,4325
2018-06-27T10:37:27.595Z,4415
2018-06-27T10:38:29.273Z,4320
2018-06-27T10:39:30.964Z,4270
2018-06-27T10:40:32.637Z,4450
2018-06-27T10:41:34.339Z,4520
2018-06-27T10:42:36.015Z,4200
2018-06-27T10:43:37.693Z,4150
2018-06-27T10:45:13.861Z,4505
2018-06-27T10:46:15.550Z,4435
2018-06-27T10:47:17.232Z,4405
2018-06-27T10:48:18.914Z,4395
2018-06-27T10:49:20.593Z,4435
2018-06-27T10:50:22.283Z,4410
2018-06-27T10:51:23.965Z,4345
2018-06-27T10:52:25.647Z,4330
2018-06-27T10:53:27.327Z,4340
2018-06-27T10:54:29.026Z,4040
2018-06-27T10:55:30.759Z,3870
2018-06-27T10:56:32.443Z,4110
2018-06-27T10:57:34.137Z,4260
2018-06-27T10:58:35.806Z,4385
2018-06-27T10:59:37.492Z,4455
2018-06-27T11:00:39.174Z,4300
2018-06-27T11:01:40.861Z,4200
2018-06-27T11:02:42.585Z,3845
2018-06-27T11:03:44.255Z,4055
2018-06-27T11:04:45.938Z,4290
2018-06-27T11:05:47.627Z,4375
2018-06-27T11:06:49.305Z,4350
2018-06-27T11:07:50.995Z,4220
2018-06-27T11:08:52.681Z,4230
2018-06-27T11:09:54.353Z,4245
2018-06-27T11:10:56.050Z,4290
2018-06-27T11:11:57.732Z,4350
2018-06-27T11:12:59.417Z,4330
2018-06-27T11:14:01.104Z,4365
2018-06-27T11:15:02.819Z,4335
2018-06-27T11:16:04.500Z,4320
2018-06-27T11:17:06.197Z,4300
2018-06-27T11:18:07.888Z,4315
2018-06-27T11:19:09.567Z,4390
2018-06-27T11:20:11.251Z,4310
2018-06-27T11:21:12.938Z,4430
2018-06-27T11:22:14.617Z,4465
2018-06-27T11:23:16.332Z,4295
2018-06-27T11:24:18.009Z,4190
2018-06-27T11:25:19.684Z,4075
2018-06-27T11:26:21.373Z,4060
2018-06-27T11:27:23.051Z,4310
2018-06-27T11:28:24.760Z,4360
2018-06-27T11:29:26.523Z,4220
2018-06-27T11:30:28.203Z,4200
2018-06-27T11:31:29.914Z,4185
2018-06-27T11:32:31.583Z,4200
2018-06-27T11:33:33.390Z,4220
2018-06-27T11:34:35.092Z,4185
2018-06-27T11:35:36.802Z,4125
2018-06-27T11:36:43.640Z,3900
2018-06-27T11:37:45.316Z,3675
2018-06-27T11:38:47.040Z,3535
2018-06-27T11:39:48.707Z,3805
2018-06-27T11:40:50.451Z,3950
2018-06-27T11:41:52.160Z,4005
2018-06-27T11:42:53.840Z,4075
2018-06-27T11:43:55.525Z,4040
2018-06-27T11:44:57.212Z,4020
2018-06-27T11:45:58.872Z,4000
2018-06-27T11:47:00.572Z,4005
2018-06-27T11:48:03.716Z,3980
2018-06-27T11:49:05.398Z,4150
2018-06-27T11:50:07.086Z,4120
2018-06-27T11:51:08.783Z,3980
2018-06-27T11:52:10.472Z,3930
2018-06-27T11:53:12.222Z,3875
2018-06-27T11:54:13.908Z,4080
2018-06-27T11:55:15.580Z,4050
2018-06-27T11:56:17.261Z,3805
2018-06-27T11:57:18.942Z,3875
2018-06-27T11:58:20.635Z,4040
2018-06-27T11:59:22.310Z,3915
2018-06-27T12:00:23.980Z,3685
2018-06-27T12:01:25.667Z,3450
2018-06-27T12:02:27.338Z,3735
2018-06-27T12:03:29.027Z,3980
2018-06-27T12:04:30.716Z,3915
2018-06-27T12:05:32.417Z,2740
2018-06-27T12:06:34.117Z,675
2018-06-27T12:07:35.778Z,675
2018-06-27T12:08:37.458Z,1210
2018-06-27T12:09:39.143Z,2465
2018-06-27T12:10:40.832Z,3460
2018-06-27T12:11:42.515Z,3580
2018-06-27T12:12:44.201Z,3695
2018-06-27T12:13:46.085Z,3805
2018-06-27T12:14:47.762Z,3860
2018-06-27T12:15:49.468Z,1960
2018-06-27T12:16:51.165Z,3830
2018-06-27T12:17:52.816Z,3620
2018-06-27T12:18:54.500Z,3545
2018-06-27T12:19:56.182Z,3545
2018-06-27T12:20:57.869Z,3780
2018-06-27T12:21:59.545Z,3740
2018-06-27T12:23:01.213Z,3645
2018-06-27T12:24:03.040Z,3675
2018-06-27T12:25:04.722Z,3720
2018-06-27T12:26:06.407Z,3595
2018-06-27T12:27:08.091Z,3555
2018-06-27T12:28:09.785Z,3575
2018-06-27T12:29:11.471Z,3665
2018-06-27T12:30:13.144Z,3630
2018-06-27T12:31:14.835Z,1285
2018-06-27T12:32:16.522Z,2900
2018-06-27T12:33:18.201Z,3645
2018-06-27T12:34:19.885Z,3560
2018-06-27T12:35:21.565Z,3565
2018-06-27T12:36:23.267Z,3465
2018-06-27T12:37:24.935Z,3395
2018-06-27T12:38:26.634Z,3245
2018-06-27T12:39:28.322Z,3335
2018-06-27T12:40:30.001Z,3260
2018-06-27T12:41:31.688Z,3065
2018-06-27T12:42:33.376Z,3275
2018-06-27T12:43:35.072Z,3445
2018-06-27T12:44:36.752Z,3345
2018-06-27T12:45:38.438Z,3305
2018-06-27T12:46:40.108Z,3370
2018-06-27T12:47:41.787Z,3460
2018-06-27T12:48:43.472Z,3400
2018-06-27T12:49:45.167Z,3415
2018-06-27T12:50:46.841Z,3380
2018-06-27T12:51:48.516Z,3440
2018-06-27T12:52:50.203Z,3390
2018-06-27T12:53:51.922Z,3325
2018-06-27T12:54:53.657Z,3350
2018-06-27T12:55:55.338Z,3330
2018-06-27T12:56:57.028Z,3200
2018-06-27T12:57:58.710Z,3090
2018-06-27T12:59:00.412Z,3190
2018-06-27T13:00:02.106Z,3315
2018-06-27T13:01:03.833Z,3385
2018-06-27T13:02:05.544Z,3305
2018-06-27T13:03:07.229Z,3265
2018-06-27T13:04:08.912Z,3300
2018-06-27T13:05:10.585Z,3270
2018-06-27T13:06:12.279Z,3325
2018-06-27T13:07:14.017Z,3325
2018-06-27T13:08:15.655Z,3300
2018-06-27T13:09:17.561Z,3335
2018-06-27T13:10:18.989Z,3455
2018-06-27T13:11:20.675Z,3475
2018-06-27T13:12:22.351Z,3480
2018-06-27T13:13:24.030Z,3450
2018-06-27T13:14:25.720Z,2095
2018-06-27T13:15:32.997Z,3475
2018-06-27T13:16:54.263Z,3430
2018-06-27T13:17:57.918Z,645
2018-06-27T13:19:02.954Z,680
2018-06-27T13:20:04.684Z,1925
2018-06-27T13:21:06.446Z,3240
2018-06-27T13:22:08.170Z,3235
2018-06-27T13:23:10.001Z,3180
2018-06-27T13:24:11.755Z,3145
2018-06-27T13:25:13.497Z,3135
2018-06-27T13:26:15.298Z,3175
2018-06-27T13:27:17.081Z,3170
2018-06-27T13:28:18.885Z,3055
2018-06-27T13:29:20.620Z,3105
2018-06-27T13:30:22.298Z,3180
2018-06-27T13:31:23.982Z,3155
2018-06-27T13:32:26.072Z,3115
2018-06-27T13:33:27.796Z,3230
2018-06-27T13:34:29.519Z,3135
2018-06-27T13:35:31.210Z,3015
2018-06-27T13:36:32.882Z,3075
2018-06-27T13:37:34.562Z,3105
2018-06-27T13:38:36.283Z,3060
2018-06-27T13:39:37.967Z,3030
2018-06-27T13:40:39.664Z,3060
2018-06-27T13:41:41.353Z,3055
2018-06-27T13:42:43.019Z,3095
2018-06-27T13:43:44.710Z,3130
2018-06-27T13:44:46.402Z,3210
2018-06-27T13:45:48.120Z,3275
2018-06-27T13:46:49.852Z,3140
2018-06-27T13:47:51.563Z,2990
2018-06-27T13:48:53.278Z,1160
2018-06-27T13:49:54.960Z,1280
2018-06-27T13:50:56.666Z,3110
2018-06-27T13:51:58.392Z,3000
2018-06-27T13:53:00.078Z,2945
2018-06-27T13:54:01.751Z,2960
2018-06-27T13:55:03.459Z,2930
2018-06-27T14:01:07.888Z,3095
2018-06-27T14:02:09.572Z,3160
2018-06-27T14:04:01.566Z,2765
2018-06-27T14:05:03.264Z,815
2018-06-27T14:06:04.931Z,665
2018-06-27T14:07:06.613Z,665
2018-06-27T14:08:08.289Z,2960
2018-06-27T14:09:09.969Z,1090
2018-06-27T14:10:11.642Z,2970
2018-06-27T14:11:13.318Z,2965
2018-06-27T14:12:14.994Z,3000
2018-06-27T14:13:16.765Z,960
2018-06-27T14:14:18.430Z,1530
2018-06-27T14:15:20.096Z,2995
2018-06-27T14:16:22.088Z,875
2018-06-27T14:17:23.775Z,750
2018-06-27T14:18:25.444Z,665
2018-06-27T14:19:27.126Z,600
2018-06-27T14:20:28.790Z,575
2018-06-27T14:21:30.458Z,545
2018-06-27T14:22:32.166Z,575
2018-06-27T14:23:33.838Z,670
2018-06-27T14:24:35.504Z,625
2018-06-27T14:25:37.174Z,1055
2018-06-27T14:26:38.879Z,2745
2018-06-27T14:27:40.558Z,2790
2018-06-27T14:28:42.232Z,2725
2018-06-27T14:29:43.904Z,2640
2018-06-27T14:30:45.647Z,2650
2018-06-27T14:31:47.337Z,2800
2018-06-27T14:32:49.061Z,2855
2018-06-27T14:33:50.671Z,2870
2018-06-27T14:34:52.371Z,2840
2018-06-27T14:35:54.049Z,855
2018-06-27T14:36:55.724Z,2705
2018-06-27T14:37:57.410Z,845
2018-06-27T14:38:59.089Z,1025
2018-06-27T14:40:00.770Z,1445
2018-06-27T14:41:02.437Z,850
2018-06-27T14:42:04.113Z,2845
2018-06-27T14:43:05.786Z,1985
2018-06-27T14:44:07.457Z,715
2018-06-27T14:45:09.142Z,750
2018-06-27T14:46:10.810Z,915
2018-06-27T14:47:12.549Z,1040
2018-06-27T14:48:14.223Z,3000
2018-06-27T14:49:15.982Z,2965
2018-06-27T14:50:17.700Z,2815
2018-06-27T14:51:19.390Z,840
2018-06-27T14:52:21.065Z,765
2018-06-27T14:53:22.746Z,690
2018-06-27T14:54:24.461Z,610
2018-06-27T14:55:26.137Z,545
2018-06-27T14:56:27.810Z,480
2018-06-27T14:57:29.483Z,435
2018-06-27T14:58:31.171Z,425
2018-06-27T14:59:32.889Z,425
2018-06-27T15:00:34.473Z,415
2018-06-27T15:01:36.159Z,435
2018-06-27T15:02:37.817Z,940
2018-06-27T15:03:39.495Z,2085
2018-06-27T15:04:41.168Z,2110
2018-06-27T15:05:43.804Z,2155
2018-06-27T15:06:45.471Z,2215
2018-06-27T15:07:47.141Z,1725
2018-06-27T15:08:48.830Z,1485
2018-06-27T15:09:50.507Z,1530
2018-06-27T15:10:52.203Z,1570
2018-06-27T15:11:53.869Z,1590
2018-06-27T15:12:55.534Z,1310
2018-06-27T15:13:57.212Z,900
2018-06-27T15:14:58.895Z,665
2018-06-27T15:16:00.591Z,575
2018-06-27T15:17:02.259Z,500
2018-06-27T15:18:03.925Z,470
2018-06-27T15:19:05.597Z,440
2018-06-27T15:20:07.268Z,420
2018-06-27T15:21:08.941Z,420
2018-06-27T15:22:10.610Z,410
2018-06-27T15:23:12.344Z,395
2018-06-27T15:24:14.007Z,420
2018-06-27T15:25:15.690Z,1285
2018-06-27T15:26:17.372Z,1320
2018-06-27T15:27:19.041Z,1200
2018-06-27T15:28:20.709Z,1120
2018-06-27T15:29:22.399Z,1120
2018-06-27T15:30:24.130Z,1230
2018-06-27T15:31:25.802Z,1230
2018-06-27T15:32:27.466Z,1180
2018-06-27T15:33:29.140Z,1155
2018-06-27T15:34:30.807Z,1150
2018-06-27T15:35:32.532Z,1165
2018-06-27T15:36:34.140Z,550
2018-06-27T15:37:35.822Z,495
2018-06-27T15:38:37.487Z,520
2018-06-27T15:39:39.166Z,585
2018-06-27T15:40:40.838Z,655
2018-06-27T15:41:42.688Z,1320
2018-06-27T15:42:44.208Z,1525
2018-06-27T15:43:45.878Z,1405
2018-06-27T15:44:47.557Z,785
2018-06-27T15:45:49.219Z,750
2018-06-27T15:46:50.908Z,725
2018-06-27T15:47:52.594Z,715
2018-06-27T15:48:54.270Z,670
2018-06-27T15:49:55.947Z,670
2018-06-27T15:50:57.620Z,670
2018-06-27T15:51:59.282Z,630
2018-06-27T15:53:00.946Z,595
2018-06-27T15:54:02.620Z,560
2018-06-27T15:55:04.287Z,535
2018-06-27T15:56:05.970Z,520
2018-06-27T15:57:07.645Z,505
2018-06-27T15:58:09.318Z,540
2018-06-27T15:59:10.986Z,875
2018-06-27T16:00:12.700Z,560
2018-06-27T16:01:14.376Z,565
2018-06-27T16:02:16.041Z,515
2018-06-27T16:03:17.711Z,2335
2018-06-27T16:04:19.388Z,2155
2018-06-27T16:05:21.073Z,1770
2018-06-27T16:06:22.748Z,1575
2018-06-27T16:07:24.426Z,1435
2018-06-27T16:08:26.089Z,1355
2018-06-27T16:09:27.768Z,1245
2018-06-27T16:10:29.428Z,700
2018-06-27T16:11:31.183Z,615
2018-06-27T16:12:32.794Z,775
2018-06-27T16:13:34.463Z,850
2018-06-27T16:14:36.130Z,915
2018-06-27T16:15:37.801Z,605
2018-06-27T16:16:39.479Z,625
2018-06-27T16:17:41.137Z,630
2018-06-27T16:18:42.830Z,620
2018-06-27T16:19:44.504Z,615
2018-06-27T16:20:46.170Z,605
2018-06-27T16:21:47.842Z,575
2018-06-27T16:22:49.512Z,510
2018-06-27T16:23:51.183Z,440